Time;durP1;ratioP1;P1;durP2;ratioP2;P2;SDS_P1;SDS_P2;PMS_P1;PMS_P2;Temp;Humidity;BMP_temperature;BMP_pressure;BME280_temperature;BME280_humidity;BME280_pressure;Samples;Min_cycle;Max_cycle;Signal;HPM_P1;HPM_P2
2023/08/19 00:07:28;;;;;;;11.8;8.1;;;;;;;19.37;89.82;;;;;
2023/08/19 00:18:28;;;;;;;12.6;8.9;;;;;;;19.18;90.2;;;;;
2023/08/19 00:29:28;;;;;;;12.6;8.9;;;;;;;19.33;90.08;;;;;
2023/08/19 00:39:28;;;;;;;12.6;8.9;;;;;;;19.3;90.67;;;;;
2023/08/19 00:50:28;;;;;;;11.5;8.4;;;;;;;19.48;90.09;;;;;
2023/08/19 01:00:28;;;;;;;11.5;8.4;;;;;;;19.38;90.53;;;;;
2023/08/19 01:10:28;;;;;;;11.5;8.4;;;;;;;19.41;90.16;;;;;
2023/08/19 01:20:29;;;;;;;13.3;9.6;;;;;;;19.43;90.8;;;;;
2023/08/19 01:31:28;;;;;;;13.3;9.6;;;;;;;19.52;90.89;;;;;
2023/08/19 01:41:28;;;;;;;13.3;9.6;;;;;;;19.6;90.62;;;;;
2023/08/19 01:51:30;;;;;;;12.4;9.1;;;;;;;19.59;89.99;;;;;
2023/08/19 02:01:28;;;;;;;12.4;9.1;;;;;;;19.59;89.97;;;;;
2023/08/19 02:11:28;;;;;;;12.4;9.1;;;;;;;19.61;89.78;;;;;
2023/08/19 02:22:28;;;;;;;12.1;9.8;;;;;;;19.56;89.71;;;;;
2023/08/19 02:32:28;;;;;;;12.1;9.8;;;;;;;19.59;89.74;;;;;
2023/08/19 02:43:28;;;;;;;12.1;9.8;;;;;;;19.59;89.63;;;;;
2023/08/19 02:54:28;;;;;;;11.9;9.2;;;;;;;19.62;89.53;;;;;
2023/08/19 03:05:28;;;;;;;11.9;9.2;;;;;;;19.46;90.17;;;;;
2023/08/19 03:15:28;;;;;;;11.9;9.2;;;;;;;19.54;90.05;;;;;
2023/08/19 03:26:28;;;;;;;11.4;8.8;;;;;;;19.45;89.64;;;;;
2023/08/19 03:36:28;;;;;;;11.4;8.8;;;;;;;19.27;89.9;;;;;
2023/08/19 03:47:28;;;;;;;12.5;9.4;;;;;;;19.21;89.77;;;;;
2023/08/19 03:58:28;;;;;;;12.5;9.4;;;;;;;19.13;90.04;;;;;
2023/08/19 04:09:28;;;;;;;12.5;9.4;;;;;;;19.16;89.94;;;;;
2023/08/19 04:19:28;;;;;;;10.5;8.5;;;;;;;19.17;89.86;;;;;
2023/08/19 04:30:28;;;;;;;10.5;8.5;;;;;;;19.18;90.07;;;;;
2023/08/19 04:41:28;;;;;;;10.5;8.5;;;;;;;19.3;89.98;;;;;
2023/08/19 04:52:28;;;;;;;11.3;8.8;;;;;;;19.44;89.95;;;;;
2023/08/19 05:03:28;;;;;;;11.3;8.8;;;;;;;19.53;89.87;;;;;
2023/08/19 05:14:28;;;;;;;11.3;8.8;;;;;;;19.63;90.13;;;;;
2023/08/19 05:24:28;;;;;;;10.2;8;;;;;;;20.2;89.35;;;;;
2023/08/19 05:35:28;;;;;;;10.2;8;;;;;;;20.86;88.44;;;;;
2023/08/19 05:46:28;;;;;;;12.1;9.4;;;;;;;21.26;87.03;;;;;
2023/08/19 05:57:28;;;;;;;12.1;9.4;;;;;;;21.67;85.62;;;;;
2023/08/19 06:07:28;;;;;;;12.1;9.4;;;;;;;22;83.91;;;;;
2023/08/19 06:17:28;;;;;;;9.8;7.3;;;;;;;22.45;83.15;;;;;
2023/08/19 06:27:28;;;;;;;9.8;7.3;;;;;;;22.66;82.59;;;;;
2023/08/19 06:38:28;;;;;;;9.8;7.3;;;;;;;23.2;78.63;;;;;
2023/08/19 06:49:28;;;;;;;11;8;;;;;;;23.68;80.93;;;;;
2023/08/19 07:00:28;;;;;;;11;8;;;;;;;23.68;79.53;;;;;
2023/08/19 07:11:28;;;;;;;11;8;;;;;;;24.13;77.85;;;;;
2023/08/19 07:22:28;;;;;;;9.3;7.5;;;;;;;24.38;76.89;;;;;
2023/08/19 07:32:28;;;;;;;9.3;7.5;;;;;;;24.73;75.09;;;;;
2023/08/19 07:43:28;;;;;;;9.3;7.5;;;;;;;25.16;74.15;;;;;
2023/08/19 07:54:28;;;;;;;9.8;7.3;;;;;;;25.68;73.57;;;;;
2023/08/19 08:04:28;;;;;;;9.8;7.3;;;;;;;25.87;71.16;;;;;
2023/08/19 08:14:28;;;;;;;9.8;7.3;;;;;;;26.14;70.3;;;;;
2023/08/19 08:25:28;;;;;;;8.8;7;;;;;;;26.5;68.67;;;;;
2023/08/19 08:36:28;;;;;;;8.8;7;;;;;;;26.83;66.48;;;;;
2023/08/19 08:46:28;;;;;;;13;7.5;;;;;;;27.03;65.21;;;;;
2023/08/19 08:57:28;;;;;;;13;7.5;;;;;;;27.4;64.25;;;;;
2023/08/19 09:07:28;;;;;;;13;7.5;;;;;;;27.49;63.85;;;;;
2023/08/19 09:18:28;;;;;;;12;6.7;;;;;;;27.97;62.49;;;;;
2023/08/19 09:28:28;;;;;;;12;6.7;;;;;;;28.08;61.45;;;;;
2023/08/19 09:39:28;;;;;;;12;6.7;;;;;;;28.42;61.15;;;;;
2023/08/19 09:49:28;;;;;;;9.4;6.9;;;;;;;28.6;60.23;;;;;
2023/08/19 10:00:28;;;;;;;9.4;6.9;;;;;;;28.86;59.56;;;;;
2023/08/19 10:11:28;;;;;;;9.4;6.9;;;;;;;29.19;57.64;;;;;
2023/08/19 10:21:30;;;;;;;11.9;7;;;;;;;29.46;55.85;;;;;
2023/08/19 10:31:29;;;;;;;11.9;7;;;;;;;29.52;55.46;;;;;
2023/08/19 10:42:28;;;;;;;11.9;7;;;;;;;29.84;56.59;;;;;
2023/08/19 10:53:28;;;;;;;10.3;6.6;;;;;;;30.04;54.32;;;;;
2023/08/19 11:03:28;;;;;;;10.3;6.6;;;;;;;30.05;51.56;;;;;
2023/08/19 11:14:28;;;;;;;10.3;6.6;;;;;;;29.83;51.27;;;;;
2023/08/19 11:24:28;;;;;;;8.3;5.6;;;;;;;30.31;50.98;;;;;
2023/08/19 11:35:28;;;;;;;8.3;5.6;;;;;;;30.53;50.26;;;;;
2023/08/19 11:45:28;;;;;;;8.3;5.6;;;;;;;30.66;49.44;;;;;
2023/08/19 11:56:28;;;;;;;8.9;5.6;;;;;;;30.84;48.8;;;;;
2023/08/19 12:06:28;;;;;;;8.9;5.6;;;;;;;30.92;49.55;;;;;
2023/08/19 12:16:28;;;;;;;8.9;5.6;;;;;;;31.12;50.18;;;;;
2023/08/19 12:27:28;;;;;;;8;5.6;;;;;;;31.15;51.93;;;;;
2023/08/19 12:37:28;;;;;;;8;5.6;;;;;;;30.82;51.22;;;;;
2023/08/19 12:47:28;;;;;;;8;5.6;;;;;;;30.59;53.18;;;;;
2023/08/19 12:58:28;;;;;;;7.5;5;;;;;;;30.72;57.08;;;;;
2023/08/19 13:09:28;;;;;;;7.5;5;;;;;;;30.97;53.18;;;;;
2023/08/19 13:19:28;;;;;;;7.5;5;;;;;;;30.98;58.67;;;;;
2023/08/19 13:29:28;;;;;;;7.5;5.6;;;;;;;31.27;59.84;;;;;
2023/08/19 13:40:28;;;;;;;7.5;5.6;;;;;;;30.58;62.72;;;;;
2023/08/19 13:50:28;;;;;;;7.5;5.6;;;;;;;30.76;58.48;;;;;
2023/08/19 14:00:29;;;;;;;7.7;5.8;;;;;;;31.23;55.88;;;;;
2023/08/19 14:10:28;;;;;;;7.7;5.8;;;;;;;29.85;59.09;;;;;
2023/08/19 14:21:28;;;;;;;7.7;5.8;;;;;;;29.63;58.62;;;;;
2023/08/19 14:31:28;;;;;;;8.4;5.9;;;;;;;29.11;60.67;;;;;
2023/08/19 14:41:29;;;;;;;8.4;5.9;;;;;;;28.77;62.41;;;;;
2023/08/19 14:52:28;;;;;;;8.4;5.9;;;;;;;28.37;65.13;;;;;
2023/08/19 15:02:29;;;;;;;13.9;9.9;;;;;;;29.02;63.35;;;;;
2023/08/19 15:12:28;;;;;;;13.9;9.9;;;;;;;29.97;62.52;;;;;
2023/08/19 15:23:28;;;;;;;13.9;9.9;;;;;;;32.24;55.64;;;;;
2023/08/19 15:33:28;;;;;;;7.9;5.4;;;;;;;33.79;49.53;;;;;
2023/08/19 15:43:29;;;;;;;7.9;5.4;;;;;;;33.72;49;;;;;
2023/08/19 15:53:28;;;;;;;7.9;5.4;;;;;;;35.02;46.81;;;;;
2023/08/19 16:14:29;;;;;;;8.4;5.5;;;;;;;31.45;52.52;;;;;
2023/08/19 16:24:28;;;;;;;8.4;5.5;;;;;;;30.26;57.28;;;;;
2023/08/19 16:34:28;;;;;;;8.5;5.3;;;;;;;29.71;59.82;;;;;
2023/08/19 16:44:28;;;;;;;8.5;5.3;;;;;;;28.95;62.22;;;;;
2023/08/19 16:55:28;;;;;;;8.5;5.3;;;;;;;28;65.84;;;;;
2023/08/19 17:06:29;;;;;;;7.5;5.8;;;;;;;27.23;64.73;;;;;
2023/08/19 17:17:29;;;;;;;7.5;5.8;;;;;;;26.71;65.74;;;;;
2023/08/19 17:28:29;;;;;;;8.9;6.7;;;;;;;25.96;66.55;;;;;
2023/08/19 17:39:29;;;;;;;8.9;6.7;;;;;;;25.36;67.84;;;;;
2023/08/19 17:50:29;;;;;;;8.9;6.7;;;;;;;24.8;69.14;;;;;
2023/08/19 18:00:29;;;;;;;8.7;6;;;;;;;24.36;71.14;;;;;
2023/08/19 18:11:29;;;;;;;8.7;6;;;;;;;23.92;72.19;;;;;
2023/08/19 18:22:28;;;;;;;8.7;6;;;;;;;23.64;72.27;;;;;
2023/08/19 18:32:28;;;;;;;10.4;7.2;;;;;;;23.23;74.28;;;;;
2023/08/19 18:42:28;;;;;;;10.4;7.2;;;;;;;22.89;75.75;;;;;
2023/08/19 18:52:29;;;;;;;10.4;7.2;;;;;;;22.54;75.9;;;;;
2023/08/19 19:02:29;;;;;;;11.6;7.3;;;;;;;22.24;76.1;;;;;
2023/08/19 19:13:29;;;;;;;11.6;7.3;;;;;;;21.98;78.7;;;;;
2023/08/19 19:24:29;;;;;;;11.6;7.3;;;;;;;21.8;79.28;;;;;
2023/08/19 19:35:29;;;;;;;11.9;8.2;;;;;;;21.68;80.54;;;;;
2023/08/19 19:45:29;;;;;;;11.9;8.2;;;;;;;21.49;81.5;;;;;
2023/08/19 19:56:29;;;;;;;11.9;8.2;;;;;;;21.34;81.71;;;;;
2023/08/19 20:07:29;;;;;;;14.1;10;;;;;;;21.25;82.9;;;;;
2023/08/19 20:18:29;;;;;;;14.1;10;;;;;;;21.09;82.29;;;;;
2023/08/19 20:28:29;;;;;;;13.2;10.5;;;;;;;21;82.04;;;;;
2023/08/19 20:38:29;;;;;;;13.2;10.5;;;;;;;20.81;81.96;;;;;
2023/08/19 20:49:29;;;;;;;13.2;10.5;;;;;;;20.72;82.03;;;;;
2023/08/19 20:59:29;;;;;;;10.6;7.6;;;;;;;20.53;83.54;;;;;
2023/08/19 21:09:29;;;;;;;10.6;7.6;;;;;;;20.49;84.26;;;;;
2023/08/19 21:19:29;;;;;;;10.6;7.6;;;;;;;20.31;85.44;;;;;
2023/08/19 21:30:29;;;;;;;12;8.3;;;;;;;20.24;84.68;;;;;
2023/08/19 21:40:29;;;;;;;12;8.3;;;;;;;20.24;83.99;;;;;
2023/08/19 21:50:29;;;;;;;12;8.3;;;;;;;20.16;84.44;;;;;
2023/08/19 22:01:29;;;;;;;11.2;8.6;;;;;;;20.12;84.07;;;;;
2023/08/19 22:12:29;;;;;;;11.2;8.6;;;;;;;20;85.03;;;;;
2023/08/19 22:22:29;;;;;;;11.2;8.6;;;;;;;19.91;85.3;;;;;
2023/08/19 22:33:29;;;;;;;12.3;7.5;;;;;;;19.86;84.87;;;;;
2023/08/19 22:44:29;;;;;;;12.3;7.5;;;;;;;19.76;85.2;;;;;
2023/08/19 22:54:29;;;;;;;12.3;7.5;;;;;;;19.47;87.82;;;;;
2023/08/19 23:05:29;;;;;;;10.8;7.5;;;;;;;19.47;87.79;;;;;
2023/08/19 23:15:29;;;;;;;10.8;7.5;;;;;;;19.47;87.42;;;;;
2023/08/19 23:26:29;;;;;;;10.8;7.5;;;;;;;19.44;87.64;;;;;
2023/08/19 23:37:29;;;;;;;12;8.6;;;;;;;19.46;86.88;;;;;
2023/08/19 23:47:29;;;;;;;12;8.6;;;;;;;19.39;86.77;;;;;
2023/08/19 23:57:29;;;;;;;12;8.6;;;;;;;19.35;87.17;;;;;
